Latest Weather Observations for Biloela

IDQ60801

Issued at 2:32 pm EST Friday 31 July 2015 (issued every 30 minutes, with the page automatically refreshed every 10 minutes)

About weather observations | Map of weather stations | Latest weather observations for QLD | Other Formats
Station Details ID: 039089 Name: THANGOOL AIRPORT Lat: -24.49 Lon: 150.57 Height: 193.1 m
Data from the previous 72 hours. | See also: Recent months at Biloela
Date/Time
EST
Temp
°C
App
Temp
°C
Dew
Point
Rel
Hum
%
Delta-T
°C
Wind Press
QNH
hPa
Press
MSL
hPa
Rain
since 9 am
mm
Dir
 
Spd
km/h
Gust
km/h
Spd
kts
Gust
kts
31/02:30pm 25.4 22.3 3.4 24 10.9 SSW 9 17 5 9 1020.7 - 0.0
31/02:00pm 25.1 22.0 3.7 25 10.6 SSW 9 13 5 7 1021.0 - 0.0
31/01:30pm 24.8 21.9 4.5 27 10.2 S 9 17 5 9 1021.4 - 0.0
31/01:00pm 24.5 21.6 4.8 28 10.0 WSW 9 13 5 7 1021.9 - 0.0
31/12:30pm 23.4 20.9 4.9 30 9.3 W 7 13 4 7 1022.6 - 0.0
31/12:00pm 22.9 19.7 4.9 31 9.0 SSW 11 17 6 9 1023.3 1023.2 0.0
31/11:30am 22.7 20.0 5.6 33 8.7 W 9 15 5 8 1023.8 - 0.0
31/11:00am 21.9 19.6 4.9 33 8.5 NE 6 11 3 6 1024.3 - 0.0
31/10:30am 21.1 18.8 5.5 36 7.8 SW 7 13 4 7 1024.7 - 0.0
31/10:00am 19.4 17.6 7.8 47 6.0 SSE 7 11 4 6 1025.1 - 0.0
31/09:30am 17.3 15.8 9.0 58 4.3 ESE 7 9 4 5 1025.4 - 0.0
31/09:00am 14.6 12.6 8.8 68 3.0 E 9 11 5 6 1025.3 1025.2 0.0
31/08:30am 11.4 9.6 7.9 79 1.7 ESE 7 11 4 6 1025.0 - 0.0
31/08:00am 8.6 6.6 6.9 89 0.8 E 7 9 4 5 1024.7 - 0.0
31/07:30am 6.4 4.2 5.5 94 0.4 E 6 7 3 4 1024.4 - 0.0
31/07:00am 4.7 2.1 4.3 97 0.2 E 7 9 4 5 1024.1 - 0.0
31/06:30am 3.6 0.4 2.9 95 0.3 E 9 11 5 6 1023.6 - 0.0
31/06:00am 4.0 1.3 2.8 92 0.5 SE 6 9 3 5 1023.6 1023.5 0.0
31/05:30am 4.7 1.3 4.1 96 0.3 E 11 13 6 7 1023.5 - 0.0
31/05:00am 4.3 1.2 3.4 94 0.4 E 9 11 5 6 1023.5 - 0.0
31/04:30am 5.0 1.9 3.8 92 0.5 ESE 9 11 5 6 1023.0 - 0.0
31/04:00am 4.6 1.7 2.8 88 0.7 E 7 9 4 5 1022.7 - 0.0
31/03:30am 6.2 3.7 5.0 92 0.5 ENE 7 9 4 5 1023.0 - 0.0
31/03:00am 5.5 2.8 3.7 88 0.8 E 7 7 4 4 1023.0 1023.0 0.0
31/02:30am 6.2 3.3 4.4 88 0.8 ESE 9 11 5 6 1023.3 - 0.0
31/02:00am 6.4 3.3 3.6 82 1.2 E 9 11 5 6 1023.7 - 0.0
31/01:30am 7.2 4.4 5.2 87 0.9 E 9 11 5 6 1024.1 - 0.0
31/01:00am 8.0 5.3 5.5 84 1.1 E 9 11 5 6 1024.4 - 0.0
31/12:30am 7.7 5.0 5.5 86 1.0 E 9 11 5 6 1024.5 - 0.0
31/12:00am 8.2 5.3 4.8 79 1.5 ESE 9 11 5 6 1024.6 1024.5 0.0
 
Date/Time
EST
Temp
°C
App
Temp
°C
Dew
Point
Rel
Hum
%
Delta-T
°C
Wind Press
QNH
hPa
Press
MSL
hPa
Rain
since 9 am
mm
Dir
 
Spd
km/h
Gust
km/h
Spd
kts
Gust
kts
30/11:30pm 9.7 7.5 6.2 79 1.6 E 7 9 4 5 1024.8 - 0.0
30/11:00pm 8.5 6.0 4.9 78 1.6 E 7 9 4 5 1024.9 - 0.0
30/10:30pm 9.5 6.9 6.0 79 1.6 E 9 13 5 7 1025.0 - 0.0
30/10:00pm 9.3 7.0 4.9 74 2.0 ESE 6 9 3 5 1024.9 - 0.0
30/09:30pm 10.3 8.9 5.3 71 2.3 SE 2 6 1 3 1025.0 - 0.0
30/09:00pm 10.6 9.6 5.4 70 2.4 CALM 0 0 0 0 1024.8 1024.7 0.0
30/08:30pm 11.3 9.3 4.5 63 3.1 ESE 4 7 2 4 1024.5 - 0.0
30/08:00pm 13.7 11.6 5.8 59 3.8 E 6 9 3 5 1024.4 - 0.0
30/07:30pm 13.4 12.0 5.6 59 3.7 ESE 2 7 1 4 1024.1 - 0.0
30/07:00pm 14.7 13.6 6.8 59 3.9 ESE 2 7 1 4 1023.6 - 0.0
30/06:30pm 15.2 12.8 5.1 51 4.8 E 7 9 4 5 1023.1 - 0.0
30/06:00pm 18.5 16.6 6.7 46 5.9 SE 6 9 3 5 1022.7 1022.7 0.0
30/05:30pm 19.7 18.8 6.1 41 6.8 CALM 0 0 0 0 1022.3 - 0.0
30/05:00pm 22.5 21.7 6.7 36 8.2 CALM 0 6 0 3 1022.4 - 0.0
30/04:30pm 22.8 20.6 6.1 34 8.6 SW 7 9 4 5 1022.6 - 0.0
30/04:00pm 24.0 21.5 6.7 33 9.0 SW 9 13 5 7 1022.4 - 0.0
30/03:30pm 23.4 20.8 6.2 33 8.9 S 9 13 5 7 1022.4 - 0.0
30/03:00pm 23.8 21.2 6.1 32 9.1 SSW 9 15 5 8 1022.3 1022.3 0.0
30/02:30pm 23.9 21.5 7.1 34 8.8 SW 9 17 5 9 1022.6 - 0.0
30/02:00pm 23.7 21.3 6.9 34 8.8 SW 9 15 5 8 1023.1 - 0.0
30/01:30pm 23.6 21.8 7.3 35 8.6 ESE 6 15 3 8 1023.6 - 0.0
30/01:00pm 23.3 20.2 7.4 36 8.4 SE 13 20 7 11 1023.9 - 0.0
30/12:30pm 22.8 20.1 7.4 37 8.1 E 11 19 6 10 1024.5 - 0.0
30/12:00pm 22.0 18.8 7.0 38 7.7 ESE 13 22 7 12 1025.2 1025.1 0.0
30/11:30am 22.5 19.5 7.5 38 7.9 SE 13 20 7 11 1025.8 - 0.0
30/11:00am 20.7 16.8 7.0 41 7.0 ESE 17 24 9 13 1026.4 - 0.0
30/10:30am 19.9 15.5 7.3 44 6.5 ESE 20 32 11 17 1026.7 - 0.0
30/10:00am 19.9 16.1 8.9 49 5.8 ESE 19 30 10 16 1027.0 - 0.0
30/09:30am 17.7 15.1 7.7 52 5.1 SE 11 17 6 9 1027.3 - 0.0
30/09:00am 15.6 13.3 7.6 59 4.0 SSE 9 15 5 8 1027.2 1027.2 0.0
30/08:30am 13.8 11.8 8.6 71 2.6 SSE 9 15 5 8 1027.1 - 0.0
30/08:00am 10.8 8.5 7.5 80 1.6 SSE 9 13 5 7 1027.1 - 0.0
30/07:30am 8.8 7.4 7.4 91 0.7 SSE 4 7 2 4 1027.1 - 0.0
30/07:00am 7.1 4.5 6.0 93 0.5 SE 9 11 5 6 1026.6 - 0.0
30/06:30am 6.8 4.1 5.7 93 0.5 SSE 9 11 5 6 1026.4 - 0.0
30/06:00am 7.0 4.7 5.6 91 0.6 SE 7 11 4 6 1026.4 1026.4 0.0
30/05:30am 7.5 4.9 6.1 91 0.6 SE 9 13 5 7 1026.4 - 0.0
30/05:00am 7.7 5.2 6.6 93 0.5 SSE 9 15 5 8 1026.4 - 0.0
30/04:30am 7.9 5.8 6.7 92 0.6 SE 7 11 4 6 1026.2 - 0.0
30/04:00am 7.9 5.8 6.5 91 0.6 SE 7 9 4 5 1026.4 - 0.0
30/03:30am 8.1 6.3 7.2 94 0.4 ESE 6 7 3 4 1026.5 - 0.0
30/03:00am 8.6 6.7 6.6 87 0.9 SSE 6 11 3 6 1027.0 1027.0 0.0
30/02:30am 8.9 7.5 7.2 89 0.8 SE 4 7 2 4 1027.2 - 0.0
30/02:00am 8.3 7.4 5.9 85 1.1 CALM 0 6 0 3 1027.2 - 0.0
30/01:30am 10.2 7.5 7.3 82 1.4 E 11 13 6 7 1027.2 - 0.0
30/01:00am 11.0 9.0 8.6 85 1.2 E 9 13 5 7 1027.5 - 0.0
30/12:30am 10.4 8.1 7.3 81 1.5 E 9 11 5 6 1027.6 - 0.0
30/12:00am 10.9 9.0 7.4 79 1.7 SE 7 9 4 5 1027.5 1027.5 0.0
 
Date/Time
EST
Temp
°C
App
Temp
°C
Dew
Point
Rel
Hum
%
Delta-T
°C
Wind Press
QNH
hPa
Press
MSL
hPa
Rain
since 9 am
mm
Dir
 
Spd
km/h
Gust
km/h
Spd
kts
Gust
kts
29/11:30pm 11.5 9.1 7.2 75 2.1 E 9 11 5 6 1027.7 - 0.0
29/11:00pm 12.1 10.2 7.4 73 2.3 SSE 7 11 4 6 1028.1 - 0.0
29/10:30pm 12.7 9.8 8.2 74 2.2 E 13 19 7 10 1027.9 - 0.0
29/10:00pm 10.7 8.5 5.3 69 2.5 ENE 6 7 3 4 1027.9 - 0.0
29/09:30pm 11.1 8.3 5.0 66 2.8 E 9 11 5 6 1027.8 - 0.0
29/09:00pm 12.2 9.3 4.9 61 3.4 E 9 9 5 5 1027.8 1027.8 0.0
29/08:30pm 12.7 10.2 4.9 59 3.6 E 7 11 4 6 1027.7 - 0.0
29/08:00pm 13.2 10.7 4.6 56 4.0 ESE 7 9 4 5 1027.5 - 0.0
29/07:30pm 13.6 10.3 4.5 54 4.2 E 11 11 6 6 1027.2 - 0.0
29/07:00pm 15.2 12.0 4.9 50 4.9 ESE 11 13 6 7 1027.0 - 0.0
29/06:30pm 16.2 13.2 4.3 45 5.6 E 9 13 5 7 1026.6 - 0.0
29/06:00pm 17.4 13.6 4.0 41 6.3 E 13 15 7 8 1026.3 1026.3 0.0
29/05:30pm 19.2 15.1 4.2 37 7.2 ESE 15 19 8 10 1026.0 - 0.0
29/05:00pm 20.9 16.7 3.6 32 8.3 ESE 15 20 8 11 1025.6 - 0.0
29/04:30pm 21.8 17.5 3.5 30 8.9 ESE 15 20 8 11 1025.4 - 0.0
29/04:00pm 22.3 17.6 3.4 29 9.2 E 17 26 9 14 1025.4 - 0.0
29/03:30pm 22.3 17.5 2.4 27 9.5 ESE 17 26 9 14 1025.5 - 0.0
29/03:00pm 22.7 18.7 2.8 27 9.5 ESE 13 24 7 13 1025.6 1025.6 0.0
29/02:30pm 23.5 19.0 4.0 28 9.7 E 17 26 9 14 1025.6 - 0.0
29/02:00pm 22.7 18.9 5.6 33 8.7 SE 15 20 8 11 1025.8 - 0.0
29/01:30pm 22.3 17.8 6.1 35 8.3 ESE 19 28 10 15 1026.3 - 0.0
29/01:00pm 21.8 17.8 6.5 37 7.8 ESE 17 24 9 13 1026.9 - 0.0
29/12:30pm 21.3 17.0 7.2 40 7.3 ESE 19 26 10 14 1027.4 - 0.0
29/12:00pm 21.3 17.6 7.9 42 7.0 ESE 17 26 9 14 1028.3 1028.3 0.0
29/11:30am 20.2 15.4 7.2 43 6.7 ESE 22 43 12 23 1028.9 - 0.0
29/11:00am 19.2 14.4 7.3 46 6.1 ESE 22 33 12 18 1029.4 - 0.0
29/10:30am 18.7 15.3 7.5 48 5.7 ESE 15 26 8 14 1029.8 - 0.0
29/10:00am 16.9 12.5 6.7 51 5.1 E 19 28 10 15 1030.3 - 0.0
29/09:30am 16.3 13.1 6.7 53 4.8 ESE 13 20 7 11 1030.4 - 0.0
29/09:00am 14.4 10.6 6.0 57 4.0 SE 15 22 8 12 1030.8 1030.8 0.0
29/08:30am 12.7 9.5 5.1 60 3.6 SE 11 20 6 11 1030.9 - 0.0
29/08:00am 10.3 7.6 5.5 72 2.2 ESE 9 13 5 7 1031.0 - 0.0
29/07:30am 8.2 5.4 5.3 82 1.3 ENE 9 11 5 6 1030.9 - 0.0
29/07:00am 5.3 2.7 3.2 86 0.9 SSW 6 7 3 4 1030.3 - 0.0
29/06:30am 5.8 3.2 3.3 84 1.1 SE 6 9 3 5 1029.9 - 0.0
29/06:00am 7.1 4.5 4.2 82 1.3 ESE 7 11 4 6 1029.4 1029.3 0.0
29/05:30am 6.5 3.7 5.3 92 0.5 ESE 9 11 5 6 1029.4 - 0.0
29/05:00am 4.9 2.4 3.9 93 0.4 SE 6 9 3 5 1029.2 - 0.0
29/04:30am 5.7 4.6 5.1 96 0.3 CALM 0 0 0 0 1029.1 - 0.0
29/04:27am 5.9 4.8 5.3 96 0.3 CALM 0 0 0 0 1029.1 - 0.0
29/04:09am 4.8 3.4 3.6 92 0.5 CALM 0 0 0 0 1029.1 - 0.0
29/04:00am 5.1 3.4 3.8 91 0.6 ENE 2 6 1 3 1029.1 - 0.0
29/03:30am 5.8 3.8 4.4 91 0.6 E 4 6 2 3 1029.1 - 0.0
29/03:00am 6.1 3.8 4.6 90 0.6 SE 6 7 3 4 1029.1 1029.0 0.0
29/02:30am 6.8 5.7 5.3 90 0.7 CALM 0 0 0 0 1029.2 - 0.0
29/02:00am 7.4 6.4 5.4 87 0.9 CALM 0 0 0 0 1029.2 - 0.0
29/01:30am 7.5 5.5 4.6 82 1.3 SSE 4 7 2 4 1029.3 - 0.0
29/01:00am 8.4 7.5 6.0 85 1.1 CALM 0 0 0 0 1029.4 - 0.0
29/12:30am 9.1 7.0 6.0 81 1.4 ESE 6 7 3 4 1029.4 - 0.0
29/12:00am 8.5 6.9 4.7 77 1.7 SSE 2 6 1 3 1029.1 1029.0 0.0
 
Date/Time
EST
Temp
°C
App
Temp
°C
Dew
Point
Rel
Hum
%
Delta-T
°C
Wind Press
QNH
hPa
Press
MSL
hPa
Rain
since 9 am
mm
Dir
 
Spd
km/h
Gust
km/h
Spd
kts
Gust
kts
28/11:30pm 9.6 7.3 5.0 73 2.1 E 6 7 3 4 1029.1 - 0.0
28/11:00pm 10.9 8.2 5.7 70 2.4 E 9 11 5 6 1029.2 - 0.0
28/10:30pm 9.7 7.2 4.7 71 2.3 ENE 7 9 4 5 1029.2 - 0.0
28/10:00pm 11.4 9.0 5.3 66 2.8 SSE 7 9 4 5 1029.1 - 0.0
28/09:30pm 12.4 9.5 6.5 67 2.8 ESE 11 17 6 9 1028.9 - 0.0
28/09:00pm 10.9 8.0 4.4 64 2.9 E 9 11 5 6 1028.7 1028.6 0.0
28/08:30pm 11.7 9.1 4.2 60 3.4 ESE 7 9 4 5 1028.4 - 0.0
28/08:00pm 12.4 9.8 4.1 57 3.8 E 7 9 4 5 1028.3 - 0.0
28/07:30pm 13.3 10.8 4.7 56 4.0 ESE 7 9 4 5 1028.0 - 0.0
28/07:00pm 12.8 10.1 3.7 54 4.1 E 7 9 4 5 1027.8 - 0.0
28/06:30pm 13.5 11.4 3.8 52 4.4 SSE 4 9 2 5 1027.5 - 0.0
28/06:00pm 14.8 12.6 3.3 46 5.2 SSE 4 9 2 5 1027.1 1027.1 0.0
28/05:30pm 18.2 15.0 3.3 37 7.0 ESE 9 17 5 9 1026.8 - 0.0
28/05:00pm 19.9 16.3 3.2 33 7.9 ESE 11 20 6 11 1026.4 - 0.0
28/04:30pm 20.9 17.0 3.2 31 8.5 ESE 13 20 7 11 1026.0 - 0.0
28/04:00pm 21.4 17.1 3.1 30 8.8 SE 15 24 8 13 1025.6 - 0.0
28/03:30pm 21.9 18.6 4.5 32 8.6 SSE 11 19 6 10 1025.5 - 0.0
28/03:00pm 21.8 17.7 4.4 32 8.5 SSE 15 22 8 12 1025.5 1025.5 0.0

Other Formats:

Comma delimited format used in spreadsheet applications
http://www.bom.gov.au/fwo/IDQ60801/IDQ60801.94376.axf

JavaScript Object Notation format (JSON) in row-major order
http://www.bom.gov.au/fwo/IDQ60801/IDQ60801.94376.json